Pagina principală
METAR-TAF:

METAR-TAF

Aeroporturi :

Altus, Oklahoma, Statele Unite ale Americii

Latitudine: 34-41-55N, longitudine: 099-20-17W, elevație: 437 m

Observații meteo curente

Raportul a fost făcut în urmă cu 30 de minute, la 21:55 UTC
Vânt 11 kt de la Sud cu rafale de până la 19 kt
Temperatură 37°C
Umiditate 31%
Presiune 1014 hPa
Vizibilitate: 16.1 km
Nori puțini la o înălțime de 7500 picior

METAR: KAXS 222155Z AUTO 19011G19KT 10SM FEW075 37/17 A2994 RMK AO2

Ora: 17:25 (22:25 UTC)


TAF: lipsă

Observații și prognoze meteo pentru peste 4.000 de aeroporturi (rapoarte METAR și TAF).

Stațiile disponibile sunt reprezentate pe hartă prin puncte galbene și roșii.

Țineți indicatorul mouse-ului pe punctul dorit pentru a vedea denumirea stației.

Apoi, faceți clic pentru a vedea observațiile și prognozele meteorologice.

Pentru a schimba harta: Pentru mărire, faceți clic pe butoanele verzi cu cruce neagră; pentru micșorare, pe butonul verde cu o liniuță; pentru hărți învecinate, pe săgețile verzi.


METAR-TAF: